PWSweather.com
Personal Weather Stations
Station Observations
GRD01
Warsaw, LesznoPL 05-084

WarsawLesznoPL 05-084

Lat: 52.257404, Lon: 20.564847

Elevation: 298

Station Type: WH3080

http://pogoda.kampinos.waw.pl

High Low Average
Temperature 84.7°F29.3°F 58.6°F14.8°F 69.1°F20.6°F
Dew Point 57.2°F14.0°F 52.6°F11.4°F 54.5°F12.5°F
Winds 8.3 mph -13.4 mph - Calm Calm 2.7 mph 4.3 mph
Wind Gusts 18.3 mph29.5 mph 0.7 mph1.1 mph 6.3 mph10.1 mph
Humidity 82% 36% 63%
Pressure 29.83 in1010.20 in 29.78 in1008.50 in -
Precipitation 0.00 in0.00 in - -
Hour Temp Dew Point Humidity Winds Wind Gusts Pressure Precip Precip Rate Daily Precip Total
12:00 AM 60.6°F15.9°C 54.4°F12.4°C 80% 2.2 mph SSE3.5 kmh SSE 3.8 mph6.1 kmh 29.79 in1008.8 mb 0.00 in0.0 mm 0.00 in0.0 mm 0.00 in0.0 mm
12:15 AM 60.6°F15.9°C 54.4°F12.4°C 80% 3.1 mph SSE5.0 kmh SSE 5.4 mph8.7 kmh 29.79 in1008.8 mb 0.00 in0.0 mm 0.00 in0.0 mm 0.00 in0.0 mm
12:30 AM 61.3°F16.3°C 55.1°F12.8°C 80% 4.5 mph S7.2 kmh S 5.4 mph8.7 kmh 29.79 in1008.8 mb 0.00 in0.0 mm 0.00 in0.0 mm 0.00 in0.0 mm
12:45 AM 61.3°F16.3°C 54.8°F12.7°C 79% 3.1 mph S5.0 kmh S 5.4 mph8.7 kmh 29.79 in1008.8 mb 0.00 in0.0 mm 0.00 in0.0 mm 0.00 in0.0 mm
01:00 AM 61.0°F16.1°C 54.4°F12.4°C 79% 2.2 mph SSE3.5 kmh SSE 3.8 mph6.1 kmh 29.79 in1008.8 mb 0.00 in0.0 mm 0.00 in0.0 mm 0.00 in0.0 mm
01:15 AM 60.1°F15.6°C 53.5°F11.9°C 79% 2.2 mph SE3.5 kmh SE 3.8 mph6.1 kmh 29.79 in1008.8 mb 0.00 in0.0 mm 0.00 in0.0 mm 0.00 in0.0 mm
01:30 AM 59.4°F15.2°C 53.2°F11.8°C 80% 2.2 mph SE3.5 kmh SE 3.1 mph5.0 kmh 29.78 in1008.5 mb 0.00 in0.0 mm 0.00 in0.0 mm 0.00 in0.0 mm
01:45 AM 59.0°F15.0°C 53.2°F11.8°C 81% 2.2 mph SE3.5 kmh SE 3.1 mph5.0 kmh 29.79 in1008.8 mb 0.00 in0.0 mm 0.00 in0.0 mm 0.00 in0.0 mm
02:00 AM 59.0°F15.0°C 53.5°F11.9°C 82% 2.2 mph S3.5 kmh S 3.8 mph6.1 kmh 29.79 in1008.8 mb 0.00 in0.0 mm 0.00 in0.0 mm 0.00 in0.0 mm
02:15 AM 58.8°F14.9°C 53.3°F11.8°C 82% 0.7 mph S1.1 kmh S 3.1 mph5.0 kmh 29.78 in1008.5 mb 0.00 in0.0 mm 0.00 in0.0 mm 0.00 in0.0 mm
02:30 AM 58.6°F14.8°C 53.2°F11.8°C 82% 1.6 mph S2.6 kmh S 3.1 mph5.0 kmh 29.79 in1008.8 mb 0.00 in0.0 mm 0.00 in0.0 mm 0.00 in0.0 mm
02:45 AM 58.6°F14.8°C 53.2°F11.8°C 82% 2.2 mph S3.5 kmh S 4.5 mph7.2 kmh 29.78 in1008.5 mb 0.00 in0.0 mm 0.00 in0.0 mm 0.00 in0.0 mm
03:00 AM 58.8°F14.9°C 53.3°F11.8°C 82% 1.6 mph S2.6 kmh S 3.8 mph6.1 kmh 29.79 in1008.8 mb 0.00 in0.0 mm 0.00 in0.0 mm 0.00 in0.0 mm
03:15 AM 59.0°F15.0°C 53.2°F11.8°C 81% 1.6 mph S2.6 kmh S 3.1 mph5.0 kmh 29.79 in1008.8 mb 0.00 in0.0 mm 0.00 in0.0 mm 0.00 in0.0 mm
03:30 AM 59.2°F15.1°C 53.4°F11.9°C 81% 1.6 mph S2.6 kmh S 3.1 mph5.0 kmh 29.80 in1009.1 mb 0.00 in0.0 mm 0.00 in0.0 mm 0.00 in0.0 mm
03:45 AM 59.2°F15.1°C 53.0°F11.7°C 80% 1.6 mph S2.6 kmh S 3.8 mph6.1 kmh 29.79 in1008.8 mb 0.00 in0.0 mm 0.00 in0.0 mm 0.00 in0.0 mm
04:00 AM 59.5°F15.3°C 53.4°F11.9°C 80% 0.7 mph S1.1 kmh S 2.2 mph3.5 kmh 29.79 in1008.8 mb 0.00 in0.0 mm 0.00 in0.0 mm 0.00 in0.0 mm
04:15 AM 59.5°F15.3°C 53.4°F11.9°C 80% 0.7 mph S1.1 kmh S 3.1 mph5.0 kmh 29.79 in1008.8 mb 0.00 in0.0 mm 0.00 in0.0 mm 0.00 in0.0 mm
04:30 AM 59.4°F15.2°C 53.2°F11.8°C 80% 2.2 mph S3.5 kmh S 3.1 mph5.0 kmh 29.80 in1009.1 mb 0.00 in0.0 mm 0.00 in0.0 mm 0.00 in0.0 mm
04:45 AM 59.0°F15.0°C 52.8°F11.6°C 80% 0.7 mph S1.1 kmh S 3.8 mph6.1 kmh 29.80 in1009.1 mb 0.00 in0.0 mm 0.00 in0.0 mm 0.00 in0.0 mm
05:00 AM 59.2°F15.1°C 53.0°F11.7°C 80% 1.6 mph S2.6 kmh S 3.8 mph6.1 kmh 29.80 in1009.1 mb 0.00 in0.0 mm 0.00 in0.0 mm 0.00 in0.0 mm
05:15 AM 59.4°F15.2°C 52.8°F11.6°C 79% 0.7 mph S1.1 kmh S 2.2 mph3.5 kmh 29.80 in1009.1 mb 0.00 in0.0 mm 0.00 in0.0 mm 0.00 in0.0 mm
05:30 AM 59.4°F15.2°C 52.8°F11.6°C 79% 1.6 mph S2.6 kmh S 2.2 mph3.5 kmh 29.80 in1009.1 mb 0.00 in0.0 mm 0.00 in0.0 mm 0.00 in0.0 mm
05:45 AM 59.2°F15.1°C 52.7°F11.5°C 79% 1.6 mph S2.6 kmh S 3.1 mph5.0 kmh 29.80 in1009.1 mb 0.00 in0.0 mm 0.00 in0.0 mm 0.00 in0.0 mm
06:00 AM 59.4°F15.2°C 52.8°F11.6°C 79% 0.7 mph S1.1 kmh S 2.2 mph3.5 kmh 29.80 in1009.1 mb 0.00 in0.0 mm 0.00 in0.0 mm 0.00 in0.0 mm
06:15 AM 59.9°F15.5°C 53.4°F11.9°C 79% 1.6 mph S2.6 kmh S 3.1 mph5.0 kmh 29.80 in1009.1 mb 0.00 in0.0 mm 0.00 in0.0 mm 0.00 in0.0 mm
06:30 AM 60.4°F15.8°C 53.5°F11.9°C 78% 0.7 mph S1.1 kmh S 2.2 mph3.5 kmh 29.80 in1009.1 mb 0.00 in0.0 mm 0.00 in0.0 mm 0.00 in0.0 mm
06:45 AM 61.2°F16.2°C 54.2°F12.3°C 78% 1.6 mph S2.6 kmh S 6.0 mph9.7 kmh 29.80 in1009.1 mb 0.00 in0.0 mm 0.00 in0.0 mm 0.00 in0.0 mm
07:00 AM 62.2°F16.8°C 54.9°F12.7°C 77% 2.2 mph SSE3.5 kmh SSE 4.5 mph7.2 kmh 29.81 in1009.5 mb 0.00 in0.0 mm 0.00 in0.0 mm 0.00 in0.0 mm
07:15 AM 63.7°F17.6°C 54.1°F12.3°C 71% 2.2 mph ENE3.5 kmh ENE 6.9 mph11.1 kmh 29.81 in1009.5 mb 0.00 in0.0 mm 0.00 in0.0 mm 0.00 in0.0 mm
07:30 AM 64.9°F18.3°C 54.9°F12.7°C 70% 1.6 mph S2.6 kmh S 5.4 mph8.7 kmh 29.81 in1009.5 mb 0.00 in0.0 mm 0.00 in0.0 mm 0.00 in0.0 mm
07:45 AM 66.0°F18.9°C 54.3°F12.4°C 66% 1.6 mph ENE2.6 kmh ENE 6.0 mph9.7 kmh 29.81 in1009.5 mb 0.00 in0.0 mm 0.00 in0.0 mm 0.00 in0.0 mm
08:00 AM 67.1°F19.5°C 54.1°F12.3°C 63% 1.6 mph S2.6 kmh S 8.3 mph13.4 kmh 29.81 in1009.5 mb 0.00 in0.0 mm 0.00 in0.0 mm 0.00 in0.0 mm
08:15 AM 68.4°F20.2°C 54.8°F12.7°C 62% 2.2 mph SW3.5 kmh SW 9.8 mph15.8 kmh 29.81 in1009.5 mb 0.00 in0.0 mm 0.00 in0.0 mm 0.00 in0.0 mm
08:30 AM 69.4°F20.8°C 55.4°F13.0°C 61% 3.8 mph S6.1 kmh S 9.8 mph15.8 kmh 29.82 in1009.8 mb 0.00 in0.0 mm 0.00 in0.0 mm 0.00 in0.0 mm
08:45 AM 70.5°F21.4°C 55.5°F13.1°C 59% 8.3 mph SSW13.4 kmh SSW 11.4 mph18.3 kmh 29.81 in1009.5 mb 0.00 in0.0 mm 0.00 in0.0 mm 0.00 in0.0 mm
09:00 AM 71.4°F21.9°C 56.3°F13.5°C 59% 1.6 mph SW2.6 kmh SW 9.2 mph14.8 kmh 29.82 in1009.8 mb 0.00 in0.0 mm 0.00 in0.0 mm 0.00 in0.0 mm
09:15 AM 72.7°F22.6°C 54.0°F12.2°C 52% 7.6 mph SSW12.2 kmh SSW 11.4 mph18.3 kmh 29.82 in1009.8 mb 0.00 in0.0 mm 0.00 in0.0 mm 0.00 in0.0 mm
09:30 AM 74.1°F23.4°C 54.8°F12.7°C 51% 6.9 mph SW11.1 kmh SW 11.4 mph18.3 kmh 29.82 in1009.8 mb 0.00 in0.0 mm 0.00 in0.0 mm 0.00 in0.0 mm
09:45 AM 75.2°F24.0°C 55.3°F12.9°C 50% 6.9 mph SSW11.1 kmh SSW 13.0 mph20.9 kmh 29.83 in1010.2 mb 0.00 in0.0 mm 0.00 in0.0 mm 0.00 in0.0 mm
10:00 AM 75.7°F24.3°C 55.8°F13.2°C 50% 4.5 mph SSW7.2 kmh SSW 10.7 mph17.2 kmh 29.83 in1010.2 mb 0.00 in0.0 mm 0.00 in0.0 mm 0.00 in0.0 mm
10:15 AM 76.5°F24.7°C 54.7°F12.6°C 47% 3.8 mph S6.1 kmh S 13.6 mph21.9 kmh 29.82 in1009.8 mb 0.00 in0.0 mm 0.00 in0.0 mm 0.00 in0.0 mm
10:30 AM 76.6°F24.8°C 55.5°F13.1°C 48% 4.5 mph S7.2 kmh S 13.0 mph20.9 kmh 29.83 in1010.2 mb 0.00 in0.0 mm 0.00 in0.0 mm 0.00 in0.0 mm
10:45 AM 77.7°F25.4°C 55.3°F12.9°C 46% 2.2 mph W3.5 kmh W 13.0 mph20.9 kmh 29.82 in1009.8 mb 0.00 in0.0 mm 0.00 in0.0 mm 0.00 in0.0 mm
11:00 AM 78.1°F25.6°C 55.0°F12.8°C 45% 6.0 mph S9.7 kmh S 10.7 mph17.2 kmh 29.81 in1009.5 mb 0.00 in0.0 mm 0.00 in0.0 mm 0.00 in0.0 mm
11:15 AM 78.4°F25.8°C 55.9°F13.3°C 46% 6.0 mph SSW9.7 kmh SSW 10.7 mph17.2 kmh 29.81 in1009.5 mb 0.00 in0.0 mm 0.00 in0.0 mm 0.00 in0.0 mm
11:30 AM 79.3°F26.3°C 56.2°F13.4°C 45% 4.5 mph S7.2 kmh S 10.7 mph17.2 kmh 29.82 in1009.8 mb 0.00 in0.0 mm 0.00 in0.0 mm 0.00 in0.0 mm
11:45 AM 80.4°F26.9°C 56.5°F13.6°C 44% 3.1 mph SW5.0 kmh SW 12.1 mph19.5 kmh 29.82 in1009.8 mb 0.00 in0.0 mm 0.00 in0.0 mm 0.00 in0.0 mm
12:00 PM 81.1°F27.3°C 57.2°F14.0°C 44% 3.1 mph SE5.0 kmh SE 9.8 mph15.8 kmh 29.81 in1009.5 mb 0.00 in0.0 mm 0.00 in0.0 mm 0.00 in0.0 mm
12:15 PM 81.7°F27.6°C 55.0°F12.8°C 40% 6.0 mph SSW9.7 kmh SSW 11.4 mph18.3 kmh 29.81 in1009.5 mb 0.00 in0.0 mm 0.00 in0.0 mm 0.00 in0.0 mm
12:30 PM 82.0°F27.8°C 55.3°F12.9°C 40% 4.5 mph W7.2 kmh W 9.8 mph15.8 kmh 29.81 in1009.5 mb 0.00 in0.0 mm 0.00 in0.0 mm 0.00 in0.0 mm
12:45 PM 82.2°F27.9°C 55.5°F13.1°C 40% 3.8 mph S6.1 kmh S 10.7 mph17.2 kmh 29.80 in1009.1 mb 0.00 in0.0 mm 0.00 in0.0 mm 0.00 in0.0 mm
01:00 PM 82.9°F28.3°C 56.1°F13.4°C 40% 8.3 mph SSE13.4 kmh SSE 13.0 mph20.9 kmh 29.81 in1009.5 mb 0.00 in0.0 mm 0.00 in0.0 mm 0.00 in0.0 mm
01:15 PM 83.1°F28.4°C 55.6°F13.1°C 39% 6.9 mph SSW11.1 kmh SSW 13.0 mph20.9 kmh 29.80 in1009.1 mb 0.00 in0.0 mm 0.00 in0.0 mm 0.00 in0.0 mm
01:30 PM 83.3°F28.5°C 55.0°F12.8°C 38% 8.3 mph S13.4 kmh S 13.6 mph21.9 kmh 29.80 in1009.1 mb 0.00 in0.0 mm 0.00 in0.0 mm 0.00 in0.0 mm
01:45 PM 83.5°F28.6°C 55.2°F12.9°C 38% 3.8 mph SSW6.1 kmh SSW 18.3 mph29.5 kmh 29.80 in1009.1 mb 0.00 in0.0 mm 0.00 in0.0 mm 0.00 in0.0 mm
02:00 PM 84.0°F28.9°C 54.2°F12.3°C 36% 4.5 mph SSW7.2 kmh SSW 10.7 mph17.2 kmh 29.80 in1009.1 mb 0.00 in0.0 mm 0.00 in0.0 mm 0.00 in0.0 mm
02:15 PM 84.4°F29.1°C 54.5°F12.5°C 36% 5.4 mph SSE8.7 kmh SSE 13.0 mph20.9 kmh 29.80 in1009.1 mb 0.00 in0.0 mm 0.00 in0.0 mm 0.00 in0.0 mm
02:30 PM 84.7°F29.3°C 54.8°F12.7°C 36% 5.4 mph W8.7 kmh W 9.8 mph15.8 kmh 29.80 in1009.1 mb 0.00 in0.0 mm 0.00 in0.0 mm 0.00 in0.0 mm
02:45 PM 84.6°F29.2°C 54.7°F12.6°C 36% 6.0 mph SSW9.7 kmh SSW 13.0 mph20.9 kmh 29.79 in1008.8 mb 0.00 in0.0 mm 0.00 in0.0 mm 0.00 in0.0 mm
03:00 PM 83.7°F28.7°C 53.9°F12.2°C 36% 3.8 mph ESE6.1 kmh ESE 12.1 mph19.5 kmh 29.80 in1009.1 mb 0.00 in0.0 mm 0.00 in0.0 mm 0.00 in0.0 mm
03:15 PM 83.5°F28.6°C 53.7°F12.1°C 36% 6.0 mph S9.7 kmh S 9.8 mph15.8 kmh 29.80 in1009.1 mb 0.00 in0.0 mm 0.00 in0.0 mm 0.00 in0.0 mm
03:30 PM 82.9°F28.3°C 53.2°F11.8°C 36% 3.1 mph SW5.0 kmh SW 12.1 mph19.5 kmh 29.80 in1009.1 mb 0.00 in0.0 mm 0.00 in0.0 mm 0.00 in0.0 mm
03:45 PM 82.8°F28.2°C 53.1°F11.7°C 36% 6.0 mph S9.7 kmh S 13.0 mph20.9 kmh 29.79 in1008.8 mb 0.00 in0.0 mm 0.00 in0.0 mm 0.00 in0.0 mm
04:00 PM 82.2°F27.9°C 52.6°F11.4°C 36% 3.8 mph SSE6.1 kmh SSE 11.4 mph18.3 kmh 29.79 in1008.8 mb 0.00 in0.0 mm 0.00 in0.0 mm 0.00 in0.0 mm
04:15 PM 81.5°F27.5°C 52.7°F11.5°C 37% 3.8 mph SSW6.1 kmh SSW 9.2 mph14.8 kmh 29.80 in1009.1 mb 0.00 in0.0 mm 0.00 in0.0 mm 0.00 in0.0 mm
04:30 PM 80.8°F27.1°C 55.5°F13.1°C 42% 5.4 mph SW8.7 kmh SW 9.2 mph14.8 kmh 29.79 in1008.8 mb 0.00 in0.0 mm 0.00 in0.0 mm 0.00 in0.0 mm
04:45 PM 79.9°F26.6°C 55.4°F13.0°C 43% 0.7 mph SE1.1 kmh SE 4.5 mph7.2 kmh 29.80 in1009.1 mb 0.00 in0.0 mm 0.00 in0.0 mm 0.00 in0.0 mm
05:00 PM 78.4°F25.8°C 55.9°F13.3°C 46% 1.6 mph S2.6 kmh S 4.5 mph7.2 kmh 29.79 in1008.8 mb 0.00 in0.0 mm 0.00 in0.0 mm 0.00 in0.0 mm
05:15 PM 77.2°F25.1°C 57.1°F13.9°C 50% 0.7 mph S1.1 kmh S 3.1 mph5.0 kmh 29.79 in1008.8 mb 0.00 in0.0 mm 0.00 in0.0 mm 0.00 in0.0 mm
05:30 PM 75.9°F24.4°C 55.9°F13.3°C 50% 0.7 mph S1.1 kmh S 2.2 mph3.5 kmh 29.80 in1009.1 mb 0.00 in0.0 mm 0.00 in0.0 mm 0.00 in0.0 mm
05:45 PM 74.7°F23.7°C 55.3°F12.9°C 51% 1.6 mph S2.6 kmh S 3.1 mph5.0 kmh 29.79 in1008.8 mb 0.00 in0.0 mm 0.00 in0.0 mm 0.00 in0.0 mm
06:00 PM 73.2°F22.9°C 55.1°F12.8°C 53% 0.7 mph S1.1 kmh S 3.1 mph5.0 kmh 29.80 in1009.1 mb 0.00 in0.0 mm 0.00 in0.0 mm 0.00 in0.0 mm
06:15 PM 71.6°F22.0°C 56.5°F13.6°C 59% 0.7 mph S1.1 kmh S 3.1 mph5.0 kmh 29.80 in1009.1 mb 0.00 in0.0 mm 0.00 in0.0 mm 0.00 in0.0 mm
06:30 PM 70.7°F21.5°C 56.1°F13.4°C 60% 1.6 mph S2.6 kmh S 3.1 mph5.0 kmh 29.80 in1009.1 mb 0.00 in0.0 mm 0.00 in0.0 mm 0.00 in0.0 mm
06:45 PM 69.6°F20.9°C 56.0°F13.3°C 62% 0.7 mph SSE1.1 kmh SSE 2.2 mph3.5 kmh 29.81 in1009.5 mb 0.00 in0.0 mm 0.00 in0.0 mm 0.00 in0.0 mm
07:00 PM 68.7°F20.4°C 55.6°F13.1°C 63% 1.6 mph S2.6 kmh S 3.1 mph5.0 kmh 29.80 in1009.1 mb 0.00 in0.0 mm 0.00 in0.0 mm 0.00 in0.0 mm
07:15 PM 67.8°F19.9°C 55.2°F12.9°C 64% 0.7 mph SE1.1 kmh SE 3.1 mph5.0 kmh 29.81 in1009.5 mb 0.00 in0.0 mm 0.00 in0.0 mm 0.00 in0.0 mm
07:30 PM 67.1°F19.5°C 54.9°F12.7°C 65% Calm Calm 3.1 mph5.0 kmh 29.80 in1009.1 mb 0.00 in0.0 mm 0.00 in0.0 mm 0.00 in0.0 mm
07:45 PM 66.6°F19.2°C 55.3°F12.9°C 67% Calm Calm 2.2 mph3.5 kmh 29.80 in1009.1 mb 0.00 in0.0 mm 0.00 in0.0 mm 0.00 in0.0 mm
08:00 PM 66.0°F18.9°C 55.2°F12.9°C 68% 0.7 mph S1.1 kmh S 2.2 mph3.5 kmh 29.82 in1009.8 mb 0.00 in0.0 mm 0.00 in0.0 mm 0.00 in0.0 mm
08:15 PM 65.5°F18.6°C 55.4°F13.0°C 70% 0.7 mph S1.1 kmh S 2.2 mph3.5 kmh 29.81 in1009.5 mb 0.00 in0.0 mm 0.00 in0.0 mm 0.00 in0.0 mm
08:30 PM 64.9°F18.3°C 54.9°F12.7°C 70% 1.6 mph S2.6 kmh S 1.6 mph2.6 kmh 29.81 in1009.5 mb 0.00 in0.0 mm 0.00 in0.0 mm 0.00 in0.0 mm
08:45 PM 64.2°F17.9°C 54.2°F12.3°C 70% Calm Calm 0.7 mph1.1 kmh 29.81 in1009.5 mb 0.00 in0.0 mm 0.00 in0.0 mm 0.00 in0.0 mm
09:00 PM 63.7°F17.6°C 54.1°F12.3°C 71% 0.7 mph S1.1 kmh S 2.2 mph3.5 kmh 29.82 in1009.8 mb 0.00 in0.0 mm 0.00 in0.0 mm 0.00 in0.0 mm
09:15 PM 63.1°F17.3°C 54.7°F12.6°C 74% 0.7 mph S1.1 kmh S 2.2 mph3.5 kmh 29.81 in1009.5 mb 0.00 in0.0 mm 0.00 in0.0 mm 0.00 in0.0 mm
09:30 PM 62.8°F17.1°C 54.7°F12.6°C 75% 0.7 mph S1.1 kmh S 1.6 mph2.6 kmh 29.82 in1009.8 mb 0.00 in0.0 mm 0.00 in0.0 mm 0.00 in0.0 mm
09:45 PM 62.4°F16.9°C 54.8°F12.7°C 76% 0.7 mph S1.1 kmh S 1.6 mph2.6 kmh 29.82 in1009.8 mb 0.00 in0.0 mm 0.00 in0.0 mm 0.00 in0.0 mm
10:00 PM 61.9°F16.6°C 54.6°F12.6°C 77% 0.7 mph S1.1 kmh S 3.1 mph5.0 kmh 29.82 in1009.8 mb 0.00 in0.0 mm 0.00 in0.0 mm 0.00 in0.0 mm
10:15 PM 61.5°F16.4°C 54.6°F12.6°C 78% 1.6 mph S2.6 kmh S 3.1 mph5.0 kmh 29.82 in1009.8 mb 0.00 in0.0 mm 0.00 in0.0 mm 0.00 in0.0 mm
10:30 PM 61.2°F16.2°C 54.6°F12.6°C 79% 2.2 mph S3.5 kmh S 3.1 mph5.0 kmh 29.82 in1009.8 mb 0.00 in0.0 mm 0.00 in0.0 mm 0.00 in0.0 mm
10:45 PM 60.8°F16.0°C 54.2°F12.3°C 79% 1.6 mph S2.6 kmh S 3.1 mph5.0 kmh 29.82 in1009.8 mb 0.00 in0.0 mm 0.00 in0.0 mm 0.00 in0.0 mm
11:00 PM 60.4°F15.8°C 54.2°F12.3°C 80% 2.2 mph S3.5 kmh S 3.1 mph5.0 kmh 29.82 in1009.8 mb 0.00 in0.0 mm 0.00 in0.0 mm 0.00 in0.0 mm
11:15 PM 60.3°F15.7°C 54.1°F12.3°C 80% 1.6 mph S2.6 kmh S 3.8 mph6.1 kmh 29.82 in1009.8 mb 0.00 in0.0 mm 0.00 in0.0 mm 0.00 in0.0 mm
11:30 PM 60.3°F15.7°C 53.7°F12.1°C 79% 2.2 mph NW3.5 kmh NW 4.5 mph7.2 kmh 29.82 in1009.8 mb 0.00 in0.0 mm 0.00 in0.0 mm 0.00 in0.0 mm
11:45 PM 59.9°F15.5°C 53.4°F11.9°C 79% Calm Calm 2.2 mph3.5 kmh 29.82 in1009.8 mb 0.00 in0.0 mm 0.00 in0.0 mm 0.00 in0.0 mm